createdAt,value
2022-12-20T00:00:38.255Z,98.22
2022-12-20T00:01:40.137Z,97.75
2022-12-20T00:02:38.453Z,98.02
2022-12-20T00:03:41.186Z,96.99
2022-12-20T00:04:38.207Z,97.40
2022-12-20T00:05:41.200Z,97.61
2022-12-20T00:06:38.206Z,97.50
2022-12-20T00:07:41.202Z,96.89
2022-12-20T00:08:38.161Z,96.58
2022-12-20T00:09:40.412Z,96.54
2022-12-20T00:10:38.150Z,96.64
2022-12-20T00:11:38.277Z,95.92
2022-12-20T00:12:38.169Z,96.13
2022-12-20T00:13:38.114Z,95.82
2022-12-20T00:14:38.131Z,95.92
2022-12-20T00:15:38.108Z,95.72
2022-12-20T00:16:38.093Z,95.72
2022-12-20T00:17:38.110Z,95.72
2022-12-20T00:18:38.107Z,96.13
2022-12-20T00:19:38.047Z,96.23
2022-12-20T00:20:38.033Z,95.21
2022-12-20T00:21:38.029Z,95.41
2022-12-20T00:22:38.013Z,95.10
2022-12-20T00:23:38.052Z,94.80
2022-12-20T00:24:38.008Z,95.10
2022-12-20T00:25:37.979Z,94.80
2022-12-20T00:26:37.990Z,94.90
2022-12-20T00:27:37.959Z,94.90
2022-12-20T00:28:39.142Z,95.00
2022-12-20T00:29:37.954Z,94.59
2022-12-20T00:30:37.935Z,95.00
2022-12-20T00:31:38.031Z,94.90
2022-12-20T00:32:37.910Z,94.90
2022-12-20T00:33:37.886Z,94.90
2022-12-20T00:34:37.903Z,94.80
2022-12-20T00:35:37.899Z,94.90
2022-12-20T00:36:37.916Z,95.10
2022-12-20T00:37:37.845Z,94.59
2022-12-20T00:38:37.825Z,94.90
2022-12-20T00:39:37.855Z,94.59
2022-12-20T00:40:37.820Z,94.59
2022-12-20T00:41:37.801Z,94.80
2022-12-20T00:42:37.959Z,95.00
2022-12-20T00:43:37.786Z,94.70
2022-12-20T00:44:37.768Z,94.39
2022-12-20T00:45:37.778Z,94.04
2022-12-20T00:46:37.821Z,94.14
2022-12-20T00:47:37.731Z,94.04
2022-12-20T00:48:39.778Z,94.55
2022-12-20T00:49:37.738Z,93.73
2022-12-20T00:50:37.822Z,93.73
2022-12-20T00:51:37.697Z,93.43
2022-12-20T00:52:37.819Z,93.63
2022-12-20T00:53:37.668Z,93.84
2022-12-20T00:54:37.836Z,93.32
2022-12-20T00:55:37.658Z,93.43
2022-12-20T00:56:37.692Z,93.52
2022-12-20T00:57:37.661Z,94.04
2022-12-20T00:58:37.637Z,93.52
2022-12-20T00:59:37.661Z,93.84
2022-12-20T01:00:37.652Z,93.73
2022-12-20T01:01:37.731Z,93.73
2022-12-20T01:02:37.750Z,93.73
2022-12-20T01:03:37.799Z,93.52
2022-12-20T01:04:37.549Z,93.22
2022-12-20T01:05:37.542Z,93.12
2022-12-20T01:06:37.549Z,92.91
2022-12-20T01:07:38.749Z,93.22
2022-12-20T01:08:37.527Z,93.01
2022-12-20T01:09:38.597Z,93.01
2022-12-20T01:10:37.492Z,92.60
2022-12-20T01:11:37.527Z,92.81
2022-12-20T01:12:37.495Z,93.01
2022-12-20T01:13:37.481Z,93.12
2022-12-20T01:14:37.442Z,93.43
2022-12-20T01:15:37.433Z,93.32
2022-12-20T01:16:37.652Z,93.32
2022-12-20T01:17:37.427Z,92.91
2022-12-20T01:18:58.474Z,92.71
2022-12-20T01:19:37.398Z,93.12
2022-12-20T01:20:37.395Z,92.81
2022-12-20T01:21:37.361Z,92.91
2022-12-20T01:22:42.413Z,93.22
2022-12-20T01:23:42.131Z,93.22
2022-12-20T01:24:37.324Z,92.81
2022-12-20T01:25:37.354Z,92.56
2022-12-20T01:26:37.308Z,92.25
2022-12-20T01:27:37.439Z,92.05
2022-12-20T01:28:37.291Z,91.74
2022-12-20T01:29:37.308Z,91.23
2022-12-20T01:30:37.290Z,91.33
2022-12-20T01:31:37.535Z,91.29
2022-12-20T01:32:37.249Z,90.99
2022-12-20T01:33:37.293Z,90.99
2022-12-20T01:34:37.209Z,91.39
2022-12-20T01:35:37.295Z,91.29
2022-12-20T01:36:37.220Z,90.88
2022-12-20T01:37:37.209Z,90.88
2022-12-20T01:38:37.340Z,90.99
2022-12-20T01:39:37.165Z,91.09
2022-12-20T01:40:37.320Z,91.13
2022-12-20T01:41:37.144Z,90.88
2022-12-20T01:42:37.175Z,90.37
2022-12-20T01:43:37.125Z,90.68
2022-12-20T01:44:37.146Z,90.47
2022-12-20T01:45:37.124Z,90.37
2022-12-20T01:46:37.120Z,90.58
2022-12-20T01:47:37.101Z,90.37
2022-12-20T01:48:38.197Z,90.78
2022-12-20T01:49:37.072Z,90.99
2022-12-20T01:50:37.189Z,90.27
2022-12-20T01:51:40.037Z,90.47
2022-12-20T01:52:37.216Z,90.88
2022-12-20T01:53:37.032Z,90.58
2022-12-20T01:54:38.268Z,90.37
2022-12-20T01:55:37.015Z,90.43
2022-12-20T01:56:36.982Z,90.33
2022-12-20T01:57:37.035Z,90.27
2022-12-20T01:58:36.955Z,90.47
2022-12-20T01:59:37.127Z,90.99
2022-12-20T02:00:36.937Z,90.99
2022-12-20T02:01:37.243Z,90.78
2022-12-20T02:02:37.028Z,90.58
2022-12-20T02:03:37.100Z,90.27
2022-12-20T02:04:36.889Z,90.58
2022-12-20T02:05:36.932Z,90.78
2022-12-20T02:06:36.866Z,90.68
2022-12-20T02:07:36.895Z,90.88
2022-12-20T02:08:36.877Z,90.78
2022-12-20T02:09:36.906Z,90.78
2022-12-20T02:10:37.547Z,90.88
2022-12-20T02:11:36.932Z,90.27
2022-12-20T02:12:36.804Z,90.23
2022-12-20T02:13:36.925Z,90.68
2022-12-20T02:14:36.825Z,90.27
2022-12-20T02:15:36.800Z,90.58
2022-12-20T02:16:36.831Z,89.65
2022-12-20T02:17:37.780Z,89.61
2022-12-20T02:18:36.736Z,89.31
2022-12-20T02:19:36.774Z,88.90
2022-12-20T02:20:36.728Z,89.41
2022-12-20T02:21:36.709Z,89.11
2022-12-20T02:22:36.833Z,89.41
2022-12-20T02:23:36.688Z,89.61
2022-12-20T02:24:36.795Z,89.51
2022-12-20T02:25:36.659Z,89.61
2022-12-20T02:26:36.842Z,89.82
2022-12-20T02:27:36.847Z,89.97
2022-12-20T02:28:36.633Z,89.65
2022-12-20T02:29:36.833Z,89.92
2022-12-20T02:30:36.603Z,90.17
2022-12-20T02:31:36.690Z,90.43
2022-12-20T02:32:36.601Z,90.27
2022-12-20T02:33:36.666Z,90.99
2022-12-20T02:34:36.576Z,90.68
2022-12-20T02:35:36.718Z,90.99
2022-12-20T02:36:36.667Z,90.99
2022-12-20T02:37:37.717Z,90.23
2022-12-20T02:38:36.538Z,90.43
2022-12-20T02:39:36.543Z,90.58
2022-12-20T02:40:36.495Z,90.99
2022-12-20T02:41:36.508Z,90.84
2022-12-20T02:42:36.514Z,90.94
2022-12-20T02:43:37.558Z,90.88
2022-12-20T02:44:36.452Z,90.12
2022-12-20T02:45:36.590Z,90.37
2022-12-20T02:46:36.452Z,90.47
2022-12-20T02:47:36.557Z,91.09
2022-12-20T02:48:36.432Z,91.09
2022-12-20T02:49:36.559Z,91.60
2022-12-20T02:50:36.413Z,91.70
2022-12-20T02:51:36.442Z,91.29
2022-12-20T02:52:36.373Z,91.29
2022-12-20T02:53:36.353Z,91.70
2022-12-20T02:54:36.358Z,91.50
2022-12-20T02:55:36.414Z,90.88
2022-12-20T02:56:36.318Z,90.78
2022-12-20T02:57:36.469Z,91.50
2022-12-20T02:58:36.341Z,91.29
2022-12-20T02:59:36.309Z,91.09
2022-12-20T03:00:36.425Z,91.50
2022-12-20T03:01:36.408Z,91.70
2022-12-20T03:02:36.700Z,91.80
2022-12-20T03:03:36.329Z,91.85
2022-12-20T03:04:36.255Z,92.01
2022-12-20T03:05:36.344Z,92.01
2022-12-20T03:06:36.203Z,92.01
2022-12-20T03:07:36.273Z,92.25
2022-12-20T03:08:36.191Z,92.42
2022-12-20T03:09:36.332Z,92.32
2022-12-20T03:10:36.199Z,92.42
2022-12-20T03:11:36.299Z,91.80
2022-12-20T03:12:36.141Z,91.80
2022-12-20T03:13:36.314Z,91.60
2022-12-20T03:14:36.151Z,91.60
2022-12-20T03:15:36.218Z,91.70
2022-12-20T03:16:36.161Z,91.35
2022-12-20T03:17:36.132Z,91.35
2022-12-20T03:18:36.199Z,91.25
2022-12-20T03:19:36.084Z,91.39
2022-12-20T03:20:36.198Z,91.29
2022-12-20T03:21:36.062Z,91.39
2022-12-20T03:22:36.172Z,91.09
2022-12-20T03:23:36.046Z,91.29
2022-12-20T03:24:36.057Z,91.09
2022-12-20T03:25:36.010Z,91.80
2022-12-20T03:26:36.036Z,92.21
2022-12-20T03:27:35.980Z,91.95
2022-12-20T03:28:36.024Z,92.21
2022-12-20T03:29:35.956Z,92.25
2022-12-20T03:30:36.696Z,92.56
2022-12-20T03:31:36.047Z,92.52
2022-12-20T03:32:36.030Z,92.25
2022-12-20T03:33:35.923Z,92.32
2022-12-20T03:34:36.038Z,92.56
2022-12-20T03:35:35.895Z,92.42
2022-12-20T03:36:36.052Z,92.52
2022-12-20T03:37:35.890Z,92.83
2022-12-20T03:38:36.080Z,93.13
2022-12-20T03:39:35.872Z,93.65
2022-12-20T03:40:35.929Z,93.95
2022-12-20T03:41:35.833Z,94.10
2022-12-20T03:42:35.897Z,94.46
2022-12-20T03:43:35.831Z,95.02
2022-12-20T03:44:35.998Z,95.94
2022-12-20T03:45:35.806Z,95.53
2022-12-20T03:46:35.893Z,95.84
2022-12-20T03:47:35.764Z,95.67
2022-12-20T03:48:35.758Z,95.98
2022-12-20T03:49:35.747Z,96.55
2022-12-20T03:50:35.736Z,96.08
2022-12-20T03:51:35.788Z,96.70
2022-12-20T03:52:35.729Z,96.19
2022-12-20T03:53:35.767Z,97.31
2022-12-20T03:54:35.689Z,97.31
2022-12-20T03:55:35.777Z,96.91
2022-12-20T03:56:36.820Z,97.82
2022-12-20T03:57:35.672Z,97.97
2022-12-20T03:58:35.802Z,98.07
2022-12-20T03:59:35.687Z,97.56
2022-12-20T04:00:35.631Z,97.56
2022-12-20T04:01:35.765Z,97.72
2022-12-20T04:02:35.785Z,97.87
2022-12-20T04:03:35.701Z,98.07
2022-12-20T04:04:35.642Z,97.56
2022-12-20T04:05:35.576Z,97.97
2022-12-20T04:06:35.695Z,97.97
2022-12-20T04:07:35.549Z,97.66
2022-12-20T04:08:38.041Z,97.97
2022-12-20T04:09:35.542Z,97.52
2022-12-20T04:10:35.684Z,97.66
2022-12-20T04:11:35.519Z,97.66
2022-12-20T04:12:35.682Z,97.56
2022-12-20T04:13:35.518Z,97.87
2022-12-20T04:14:35.542Z,97.56
2022-12-20T04:15:35.578Z,97.87
2022-12-20T04:16:35.636Z,97.56
2022-12-20T04:17:35.473Z,97.87
2022-12-20T04:18:35.454Z,97.87
2022-12-20T04:19:35.433Z,96.91
2022-12-20T04:20:35.541Z,97.31
2022-12-20T04:21:35.413Z,96.95
2022-12-20T04:22:36.392Z,97.41
2022-12-20T04:23:35.567Z,97.21
2022-12-20T04:24:35.567Z,96.91
2022-12-20T04:25:35.352Z,97.41
2022-12-20T04:26:35.386Z,97.21
2022-12-20T04:27:35.330Z,97.15
2022-12-20T04:28:35.314Z,97.31
2022-12-20T04:29:35.470Z,97.31
2022-12-20T04:30:35.303Z,97.41
2022-12-20T04:31:35.587Z,97.41
2022-12-20T04:32:35.284Z,97.41
2022-12-20T04:33:35.418Z,97.31
2022-12-20T04:34:35.463Z,96.80
2022-12-20T04:35:35.270Z,97.00
2022-12-20T04:36:35.433Z,96.95
2022-12-20T04:37:35.234Z,97.00
2022-12-20T04:38:35.256Z,97.82
2022-12-20T04:39:35.213Z,97.92
2022-12-20T04:40:35.190Z,97.72
2022-12-20T04:41:35.231Z,97.62
2022-12-20T04:42:35.331Z,97.82
2022-12-20T04:43:35.174Z,97.36
2022-12-20T04:44:35.305Z,97.77
2022-12-20T04:45:35.140Z,97.62
2022-12-20T04:46:35.419Z,97.62
2022-12-20T04:47:35.167Z,97.62
2022-12-20T04:48:56.332Z,97.62
2022-12-20T04:49:36.093Z,97.56
2022-12-20T04:50:35.155Z,97.97
2022-12-20T04:51:35.088Z,97.56
2022-12-20T04:52:35.145Z,97.72
2022-12-20T04:53:35.045Z,97.97
2022-12-20T04:54:35.067Z,97.87
2022-12-20T04:55:35.159Z,98.38
2022-12-20T04:56:35.012Z,98.07
2022-12-20T04:57:35.174Z,98.69
2022-12-20T04:58:34.988Z,98.07
2022-12-20T04:59:35.038Z,98.28
2022-12-20T05:00:35.002Z,98.49
2022-12-20T05:01:35.081Z,98.58
2022-12-20T05:02:35.163Z,98.38
2022-12-20T05:03:35.010Z,98.49
2022-12-20T05:04:37.480Z,98.18
2022-12-20T05:05:34.915Z,98.38
2022-12-20T05:06:34.960Z,98.28
2022-12-20T05:07:34.919Z,98.49
2022-12-20T05:08:35.666Z,98.07
2022-12-20T05:09:34.894Z,98.18
2022-12-20T05:10:35.055Z,98.49
2022-12-20T05:11:34.860Z,98.33
2022-12-20T05:12:34.874Z,98.49
2022-12-20T05:13:34.834Z,98.28
2022-12-20T05:14:34.878Z,98.65
2022-12-20T05:15:34.855Z,98.18
2022-12-20T05:16:35.071Z,98.49
2022-12-20T05:17:34.779Z,98.33
2022-12-20T05:18:34.969Z,98.38
2022-12-20T05:19:34.918Z,98.38
2022-12-20T05:20:34.764Z,98.18
2022-12-20T05:21:34.987Z,98.49
2022-12-20T05:22:34.789Z,98.38
2022-12-20T05:23:34.737Z,98.28
2022-12-20T05:24:34.703Z,98.38
2022-12-20T05:25:34.757Z,98.28
2022-12-20T05:26:34.706Z,98.38
2022-12-20T05:27:34.812Z,98.49
2022-12-20T05:28:34.670Z,98.49
2022-12-20T05:29:34.768Z,98.24
2022-12-20T05:30:34.676Z,98.54
2022-12-20T05:31:34.978Z,98.24
2022-12-20T05:32:34.645Z,98.79
2022-12-20T05:33:34.812Z,99.41
2022-12-20T05:34:34.603Z,99.36
2022-12-20T05:35:34.606Z,99.99
2022-12-20T05:36:34.586Z,99.61
2022-12-20T05:37:34.684Z,99.71
2022-12-20T05:38:34.577Z,99.99
2022-12-20T05:39:34.538Z,99.91
2022-12-20T05:40:34.673Z,99.99
2022-12-20T05:41:34.521Z,99.71
2022-12-20T05:42:34.715Z,99.99
2022-12-20T05:43:34.501Z,99.99
2022-12-20T05:44:34.487Z,99.99
2022-12-20T05:45:34.479Z,99.99
2022-12-20T05:46:34.507Z,99.82
2022-12-20T05:47:34.456Z,99.91
2022-12-20T05:48:34.581Z,99.99
2022-12-20T05:49:34.440Z,99.99
2022-12-20T05:50:34.505Z,99.99
2022-12-20T05:51:34.409Z,99.99
2022-12-20T05:52:34.417Z,99.36
2022-12-20T05:53:34.433Z,99.99
2022-12-20T05:54:34.605Z,99.77
2022-12-20T05:55:34.363Z,99.99
2022-12-20T05:56:34.548Z,99.99
2022-12-20T05:57:35.588Z,99.99
2022-12-20T05:58:34.342Z,99.99
2022-12-20T05:59:35.472Z,99.91
2022-12-20T06:00:34.312Z,99.98
2022-12-20T06:01:34.497Z,99.99
2022-12-20T06:02:34.459Z,99.87
2022-12-20T06:03:34.565Z,99.98
2022-12-20T06:04:34.305Z,99.99
2022-12-20T06:05:34.453Z,99.99
2022-12-20T06:06:34.268Z,99.99
2022-12-20T06:07:34.421Z,99.99
2022-12-20T06:08:34.246Z,99.99
2022-12-20T06:09:34.443Z,99.99
2022-12-20T06:10:34.281Z,99.99
2022-12-20T06:11:34.205Z,99.99
2022-12-20T06:12:34.185Z,99.99
2022-12-20T06:13:34.268Z,99.99
2022-12-20T06:14:34.156Z,99.99
2022-12-20T06:15:34.273Z,99.99
2022-12-20T06:16:34.470Z,99.99
2022-12-20T06:17:34.122Z,99.99
2022-12-20T06:18:34.288Z,99.99
2022-12-20T06:19:34.111Z,99.99
2022-12-20T06:20:34.303Z,99.99
2022-12-20T06:21:34.105Z,99.99
2022-12-20T06:22:34.139Z,99.99
2022-12-20T06:23:34.101Z,99.99
2022-12-20T06:24:34.122Z,99.99
2022-12-20T06:25:34.054Z,99.99
2022-12-20T06:26:34.174Z,99.99
2022-12-20T06:27:34.016Z,99.99
2022-12-20T06:28:34.012Z,99.99
2022-12-20T06:29:34.030Z,99.99
2022-12-20T06:30:34.386Z,99.99
2022-12-20T06:31:34.000Z,99.99
2022-12-20T06:32:34.033Z,99.99
2022-12-20T06:33:33.991Z,99.99
2022-12-20T06:34:33.911Z,99.99
2022-12-20T06:35:33.937Z,99.99
2022-12-20T06:36:34.010Z,99.91
2022-12-20T06:37:33.949Z,99.99
2022-12-20T06:38:35.046Z,99.99
2022-12-20T06:39:33.902Z,99.91
2022-12-20T06:40:34.027Z,99.99
2022-12-20T06:41:33.860Z,99.99
2022-12-20T06:42:33.875Z,99.99
2022-12-20T06:43:33.868Z,99.91
2022-12-20T06:44:34.053Z,99.99
2022-12-20T06:45:41.023Z,99.99
2022-12-20T06:46:34.961Z,99.99
2022-12-20T06:47:33.818Z,99.99
2022-12-20T06:48:33.876Z,99.99
2022-12-20T06:49:33.802Z,99.99
2022-12-20T06:50:33.892Z,99.96
2022-12-20T06:51:33.755Z,99.86
2022-12-20T06:52:33.904Z,99.96
2022-12-20T06:53:33.755Z,99.99
2022-12-20T06:54:33.769Z,99.99
2022-12-20T06:55:33.708Z,99.99
2022-12-20T06:56:40.842Z,99.99
2022-12-20T06:57:34.692Z,99.99
2022-12-20T06:58:33.699Z,99.99
2022-12-20T06:59:33.685Z,99.99
2022-12-20T07:00:33.805Z,99.99
2022-12-20T07:01:33.771Z,99.99
2022-12-20T07:02:33.834Z,99.99
2022-12-20T07:03:33.669Z,99.99
2022-12-20T07:04:33.789Z,99.99
2022-12-20T07:05:33.632Z,99.99
2022-12-20T07:06:33.613Z,99.96
2022-12-20T07:07:37.292Z,99.96
2022-12-20T07:08:34.567Z,99.99
2022-12-20T07:09:34.630Z,99.99
2022-12-20T07:10:33.582Z,99.99
2022-12-20T07:11:33.695Z,99.99
2022-12-20T07:12:33.639Z,99.76
2022-12-20T07:13:33.530Z,99.99
2022-12-20T07:14:33.703Z,99.76
2022-12-20T07:15:33.534Z,99.99
2022-12-20T07:16:33.561Z,99.96
2022-12-20T07:17:33.470Z,99.99
2022-12-20T07:18:33.675Z,99.66
2022-12-20T07:19:33.456Z,99.96
2022-12-20T07:20:33.535Z,99.96
2022-12-20T07:21:33.427Z,99.86
2022-12-20T07:22:34.525Z,99.99
2022-12-20T07:23:33.409Z,99.55
2022-12-20T07:24:33.413Z,99.99
2022-12-20T07:25:33.379Z,99.96
2022-12-20T07:26:33.396Z,99.76
2022-12-20T07:27:34.549Z,99.45
2022-12-20T07:28:33.389Z,99.76
2022-12-20T07:29:33.542Z,99.76
2022-12-20T07:30:33.352Z,99.76
2022-12-20T07:31:33.372Z,99.66
2022-12-20T07:32:33.321Z,99.45
2022-12-20T07:33:33.373Z,99.45
2022-12-20T07:34:33.290Z,99.66
2022-12-20T07:35:33.289Z,99.45
2022-12-20T07:36:33.292Z,99.04
2022-12-20T07:37:33.247Z,98.83
2022-12-20T07:38:33.325Z,98.63
2022-12-20T07:39:33.408Z,98.74
2022-12-20T07:40:33.219Z,98.94
2022-12-20T07:41:33.422Z,98.33
2022-12-20T07:42:36.345Z,98.63
2022-12-20T07:43:34.303Z,98.43
2022-12-20T07:44:33.176Z,98.33
2022-12-20T07:45:33.186Z,98.33
2022-12-20T07:46:33.226Z,98.53
2022-12-20T07:47:33.267Z,98.02
2022-12-20T07:48:33.171Z,98.43
2022-12-20T07:49:33.328Z,98.63
2022-12-20T07:50:33.108Z,99.04
2022-12-20T07:51:33.286Z,97.91
2022-12-20T07:52:33.105Z,98.22
2022-12-20T07:53:33.085Z,98.12
2022-12-20T07:54:33.115Z,98.18
2022-12-20T07:55:33.342Z,97.71
2022-12-20T07:56:37.534Z,98.18
2022-12-20T07:57:34.049Z,97.97
2022-12-20T07:58:33.123Z,97.56
2022-12-20T07:59:33.037Z,97.71
2022-12-20T08:00:33.188Z,98.12
2022-12-20T08:01:33.188Z,97.81
2022-12-20T08:02:33.218Z,97.56
2022-12-20T08:03:33.257Z,97.50
2022-12-20T08:04:55.082Z,97.87
2022-12-20T08:05:32.947Z,97.61
2022-12-20T08:06:34.044Z,97.71
2022-12-20T08:07:32.938Z,97.81
2022-12-20T08:08:32.984Z,97.91
2022-12-20T08:09:32.920Z,97.81
2022-12-20T08:10:33.001Z,98.12
2022-12-20T08:11:32.887Z,97.50
2022-12-20T08:12:33.014Z,97.81
2022-12-20T08:13:32.892Z,97.81
2022-12-20T08:14:33.083Z,97.71
2022-12-20T08:15:32.863Z,98.12
2022-12-20T08:16:33.051Z,98.02
2022-12-20T08:17:32.818Z,98.12
2022-12-20T08:18:32.863Z,97.91
2022-12-20T08:19:33.164Z,97.61
2022-12-20T08:20:32.914Z,97.87
2022-12-20T08:21:32.793Z,97.87
2022-12-20T08:22:32.789Z,97.77
2022-12-20T08:23:32.883Z,97.36
2022-12-20T08:24:32.729Z,97.46
2022-12-20T08:25:39.394Z,97.15
2022-12-20T08:26:33.726Z,97.46
2022-12-20T08:27:32.766Z,97.46
2022-12-20T08:28:33.792Z,97.46
2022-12-20T08:29:32.720Z,97.05
2022-12-20T08:30:32.760Z,97.05
2022-12-20T08:31:32.804Z,97.66
2022-12-20T08:32:32.700Z,97.66
2022-12-20T08:33:32.761Z,97.36
2022-12-20T08:34:32.703Z,97.36
2022-12-20T08:35:32.755Z,97.46
2022-12-20T08:36:32.607Z,97.46
2022-12-20T08:37:35.752Z,97.05
2022-12-20T08:38:32.581Z,96.44
2022-12-20T08:39:32.579Z,96.39
2022-12-20T08:40:32.583Z,96.54
2022-12-20T08:41:32.591Z,96.59
2022-12-20T08:42:32.539Z,96.19
2022-12-20T08:43:32.603Z,96.39
2022-12-20T08:44:32.526Z,96.59
2022-12-20T08:45:32.548Z,96.08
2022-12-20T08:46:32.565Z,95.67
2022-12-20T08:47:32.508Z,95.67
2022-12-20T08:48:32.495Z,95.78
2022-12-20T08:49:32.541Z,95.67
2022-12-20T08:50:32.499Z,95.78
2022-12-20T08:51:32.574Z,95.37
2022-12-20T08:52:32.474Z,96.08
2022-12-20T08:53:32.523Z,95.98
2022-12-20T08:54:32.526Z,95.98
2022-12-20T08:55:33.063Z,95.78
2022-12-20T08:56:32.489Z,95.88
2022-12-20T08:57:32.372Z,96.08
2022-12-20T08:58:32.504Z,95.98
2022-12-20T08:59:32.366Z,95.67
2022-12-20T09:00:32.533Z,95.63
2022-12-20T09:01:33.115Z,95.43
2022-12-20T09:02:32.763Z,95.12
2022-12-20T09:03:32.495Z,95.02
2022-12-20T09:04:32.322Z,94.92
2022-12-20T09:05:33.063Z,94.92
2022-12-20T09:06:32.397Z,94.81
2022-12-20T09:07:32.278Z,94.92
2022-12-20T09:08:32.243Z,94.60
2022-12-20T09:09:32.370Z,94.81
2022-12-20T09:10:32.259Z,94.46
2022-12-20T09:11:33.208Z,94.26
2022-12-20T09:12:32.206Z,94.30
2022-12-20T09:13:34.408Z,93.99
2022-12-20T09:14:32.182Z,93.74
2022-12-20T09:15:33.320Z,94.15
2022-12-20T09:16:32.165Z,93.95
2022-12-20T09:17:35.082Z,94.15
2022-12-20T09:18:32.146Z,93.65
2022-12-20T09:19:32.290Z,93.70
2022-12-20T09:20:32.132Z,93.44
2022-12-20T09:21:32.249Z,93.65
2022-12-20T09:22:32.133Z,93.70
2022-12-20T09:23:32.257Z,94.01
2022-12-20T09:24:32.100Z,93.74
2022-12-20T09:25:32.281Z,93.70
2022-12-20T09:26:32.071Z,93.33
2022-12-20T09:27:32.717Z,92.78
2022-12-20T09:28:32.070Z,93.19
2022-12-20T09:29:35.416Z,92.99
2022-12-20T09:30:34.551Z,92.58
2022-12-20T09:31:32.128Z,92.88
2022-12-20T09:32:32.010Z,92.99
2022-12-20T09:33:31.984Z,92.88
2022-12-20T09:34:31.997Z,92.68
2022-12-20T09:35:31.967Z,92.47
2022-12-20T09:36:32.563Z,92.99
2022-12-20T09:37:31.996Z,92.68
2022-12-20T09:38:31.981Z,92.37
2022-12-20T09:39:31.953Z,92.17
2022-12-20T09:40:32.581Z,92.47
2022-12-20T09:41:31.894Z,92.58
2022-12-20T09:42:32.121Z,92.07
2022-12-20T09:43:34.562Z,92.88
2022-12-20T09:44:32.006Z,92.37
2022-12-20T09:45:31.850Z,92.58
2022-12-20T09:46:31.923Z,92.37
2022-12-20T09:47:38.564Z,92.58
2022-12-20T09:48:32.104Z,92.78
2022-12-20T09:49:32.153Z,92.23
2022-12-20T09:50:31.830Z,92.23
2022-12-20T09:51:31.816Z,92.17
2022-12-20T09:52:32.617Z,92.27
2022-12-20T09:53:31.758Z,92.17
2022-12-20T09:54:31.895Z,92.17
2022-12-20T09:55:31.754Z,92.33
2022-12-20T09:56:31.930Z,92.17
2022-12-20T09:57:31.736Z,92.27
2022-12-20T09:58:32.565Z,92.33
2022-12-20T09:59:38.391Z,91.52
2022-12-20T10:00:32.723Z,91.72
2022-12-20T10:01:38.249Z,92.02
2022-12-20T10:02:57.183Z,91.82
2022-12-20T10:03:32.884Z,91.92
2022-12-20T10:04:31.816Z,91.20
2022-12-20T10:05:36.974Z,91.52
2022-12-20T10:06:32.622Z,91.52
2022-12-20T10:07:31.735Z,91.61
2022-12-20T10:08:31.621Z,91.82
2022-12-20T10:09:31.752Z,91.20
2022-12-20T10:10:32.601Z,91.20
2022-12-20T10:11:38.138Z,91.31
2022-12-20T10:12:32.549Z,91.41
2022-12-20T10:13:31.570Z,91.47
2022-12-20T10:14:31.569Z,91.06
2022-12-20T10:15:34.130Z,91.27
2022-12-20T10:16:31.560Z,90.55
2022-12-20T10:17:32.842Z,90.35
2022-12-20T10:18:31.484Z,90.31
2022-12-20T10:19:31.621Z,90.41
2022-12-20T10:20:31.522Z,90.51
2022-12-20T10:21:32.284Z,90.55
2022-12-20T10:22:31.476Z,91.16
2022-12-20T10:23:33.555Z,91.12
2022-12-20T10:24:34.064Z,91.12
2022-12-20T10:25:31.457Z,91.63
2022-12-20T10:26:31.416Z,90.92
2022-12-20T10:27:31.545Z,90.71
2022-12-20T10:28:31.395Z,91.02
2022-12-20T10:29:31.400Z,91.43
2022-12-20T10:30:31.411Z,90.51
2022-12-20T10:31:32.586Z,91.12
2022-12-20T10:32:31.349Z,91.22
2022-12-20T10:33:31.561Z,91.12
2022-12-20T10:34:38.988Z,91.33
2022-12-20T10:35:35.078Z,91.43
2022-12-20T10:36:31.328Z,90.81
2022-12-20T10:37:31.322Z,91.33
2022-12-20T10:38:31.619Z,91.12
2022-12-20T10:39:31.332Z,91.43
2022-12-20T10:41:01.378Z,91.43
2022-12-20T10:41:32.283Z,91.12
2022-12-20T10:42:31.234Z,91.22
2022-12-20T10:43:34.068Z,90.31
2022-12-20T10:44:31.217Z,90.20
2022-12-20T10:45:36.013Z,90.47
2022-12-20T10:46:35.089Z,90.77
2022-12-20T10:48:43.135Z,90.67
2022-12-20T10:49:43.064Z,90.88
2022-12-20T10:50:43.205Z,90.77
2022-12-20T10:51:43.060Z,90.16
2022-12-20T10:52:43.097Z,90.16
2022-12-20T10:53:42.999Z,90.16
2022-12-20T10:54:43.287Z,90.26
2022-12-20T10:55:42.978Z,90.16
2022-12-20T10:56:45.184Z,90.51
2022-12-20T10:57:43.661Z,90.26
2022-12-20T10:58:42.950Z,91.08
2022-12-20T10:59:43.047Z,90.77
2022-12-20T11:00:43.177Z,91.28
2022-12-20T11:01:43.902Z,91.33
2022-12-20T11:02:43.386Z,91.22
2022-12-20T11:03:43.121Z,91.43
2022-12-20T11:04:42.892Z,91.53
2022-12-20T11:05:43.079Z,91.12
2022-12-20T11:06:42.855Z,90.92
2022-12-20T11:08:08.446Z,91.12
2022-12-20T11:08:52.527Z,91.33
2022-12-20T11:09:46.645Z,91.33
2022-12-20T11:10:43.842Z,91.43
2022-12-20T11:11:42.823Z,91.33
2022-12-20T11:12:45.671Z,91.33
2022-12-20T11:13:42.828Z,91.43
2022-12-20T11:14:43.650Z,90.92
2022-12-20T11:15:43.713Z,91.12
2022-12-20T11:16:43.278Z,91.53
2022-12-20T11:17:43.347Z,91.49
2022-12-20T11:18:43.684Z,91.28
2022-12-20T11:19:43.650Z,90.67
2022-12-20T11:20:43.700Z,90.88
2022-12-20T11:21:43.650Z,90.88
2022-12-20T11:22:43.362Z,90.36
2022-12-20T11:23:43.658Z,90.57
2022-12-20T11:24:43.155Z,90.47
2022-12-20T11:25:43.160Z,91.18
2022-12-20T11:26:43.333Z,91.18
2022-12-20T11:27:42.625Z,90.57
2022-12-20T11:28:43.405Z,90.57
2022-12-20T11:29:43.153Z,90.98
2022-12-20T11:30:43.155Z,91.18
2022-12-20T11:31:42.856Z,90.36
2022-12-20T11:32:48.391Z,90.16
2022-12-20T11:33:43.627Z,90.12
2022-12-20T11:34:43.159Z,90.36
2022-12-20T11:35:43.287Z,90.67
2022-12-20T11:36:43.195Z,90.67
2022-12-20T11:37:44.203Z,90.77
2022-12-20T11:38:43.207Z,90.47
2022-12-20T11:39:43.191Z,90.47
2022-12-20T11:40:43.223Z,90.26
2022-12-20T11:41:43.163Z,90.16
2022-12-20T11:42:43.168Z,90.06
2022-12-20T11:44:15.302Z,90.06
2022-12-20T11:44:52.019Z,90.06
2022-12-20T11:45:43.508Z,90.16
2022-12-20T11:46:43.273Z,89.81
2022-12-20T11:47:45.315Z,89.71
2022-12-20T11:48:45.158Z,89.40
2022-12-20T11:49:45.786Z,89.40
2022-12-20T11:50:45.164Z,89.51
2022-12-20T11:51:45.437Z,89.51
2022-12-20T11:52:45.156Z,89.00
2022-12-20T11:53:45.359Z,88.79
2022-12-20T11:54:42.358Z,89.10
2022-12-20T11:55:45.372Z,88.39
2022-12-20T11:56:44.485Z,89.10
2022-12-20T11:58:09.533Z,89.10
2022-12-20T11:58:43.405Z,88.90
2022-12-20T11:59:45.157Z,88.90
2022-12-20T12:00:45.229Z,89.10
2022-12-20T12:01:45.413Z,89.30
2022-12-20T12:02:45.361Z,89.51
2022-12-20T12:03:42.229Z,90.12
2022-12-20T12:04:44.411Z,90.12
2022-12-20T12:05:45.306Z,90.12
2022-12-20T12:06:45.238Z,89.34
2022-12-20T12:07:45.153Z,89.65
2022-12-20T12:08:45.271Z,89.71
2022-12-20T12:09:44.649Z,89.25
2022-12-20T12:10:43.796Z,89.81
2022-12-20T12:12:43.123Z,89.75
2022-12-20T12:13:44.673Z,89.45
2022-12-20T12:14:42.100Z,89.25
2022-12-20T12:15:44.684Z,90.01
2022-12-20T12:16:43.478Z,89.65
2022-12-20T12:17:42.311Z,89.30
2022-12-20T12:18:43.443Z,89.65
2022-12-20T12:19:48.663Z,89.55
2022-12-20T12:20:42.057Z,88.93
2022-12-20T12:21:42.067Z,89.61
2022-12-20T12:22:44.681Z,89.51
2022-12-20T12:23:42.119Z,89.40
2022-12-20T12:24:44.664Z,89.04
2022-12-20T12:25:41.969Z,89.61
2022-12-20T12:26:41.996Z,89.61
2022-12-20T12:27:44.762Z,89.81
2022-12-20T12:28:41.984Z,89.51
2022-12-20T12:29:44.220Z,89.81
2022-12-20T12:30:44.669Z,89.92
2022-12-20T12:31:41.963Z,90.32
2022-12-20T12:32:44.725Z,90.42
2022-12-20T12:33:42.027Z,90.53
2022-12-20T12:34:41.877Z,90.42
2022-12-20T12:35:42.813Z,90.63
2022-12-20T12:36:41.857Z,90.63
2022-12-20T12:37:41.842Z,90.42
2022-12-20T12:38:41.838Z,90.32
2022-12-20T12:39:42.028Z,90.06
2022-12-20T12:40:50.504Z,90.47
2022-12-20T12:41:42.814Z,90.67
2022-12-20T12:42:41.790Z,90.77
2022-12-20T12:43:41.808Z,90.88
2022-12-20T12:44:44.320Z,91.14
2022-12-20T12:45:42.684Z,90.63
2022-12-20T12:46:44.687Z,90.63
2022-12-20T12:47:41.753Z,90.01
2022-12-20T12:48:41.856Z,90.73
2022-12-20T12:49:44.663Z,90.73
2022-12-20T12:50:41.699Z,90.53
2022-12-20T12:51:41.866Z,90.01
2022-12-20T12:52:41.681Z,90.73
2022-12-20T12:53:41.731Z,90.22
2022-12-20T12:54:41.661Z,90.32